createdAt,value
2023-05-04T00:00:32.628Z,70.49
2023-05-04T00:03:30.236Z,70.37
2023-05-04T00:06:28.146Z,70.42
2023-05-04T00:09:25.572Z,70.30
2023-05-04T00:12:23.224Z,70.20
2023-05-04T00:15:20.914Z,70.17
2023-05-04T00:18:18.369Z,70.07
2023-05-04T00:21:16.154Z,69.91
2023-05-04T00:24:13.531Z,69.73
2023-05-04T00:27:11.713Z,69.76
2023-05-04T00:30:09.184Z,69.65
2023-05-04T00:33:06.919Z,69.43
2023-05-04T00:36:04.333Z,69.45
2023-05-04T00:39:01.963Z,69.48
2023-05-04T00:41:59.412Z,69.49
2023-05-04T00:44:57.290Z,69.57
2023-05-04T00:47:54.905Z,69.63
2023-05-04T00:50:52.334Z,69.69
2023-05-04T00:53:49.950Z,69.76
2023-05-04T00:56:47.421Z,69.90
2023-05-04T00:59:45.073Z,70.05
2023-05-04T01:02:42.527Z,70.23
2023-05-04T01:05:40.402Z,70.27
2023-05-04T01:08:37.779Z,70.44
2023-05-04T01:11:35.650Z,70.62
2023-05-04T01:14:33.020Z,70.80
2023-05-04T01:17:30.709Z,70.99
2023-05-04T01:20:28.173Z,71.08
2023-05-04T01:23:26.634Z,71.28
2023-05-04T01:26:24.394Z,71.36
2023-05-04T01:29:21.970Z,71.31
2023-05-04T01:32:19.393Z,71.28
2023-05-04T01:35:17.093Z,71.59
2023-05-04T01:38:14.691Z,71.75
2023-05-04T01:41:12.132Z,72.00
2023-05-04T01:44:09.754Z,72.22
2023-05-04T01:47:07.210Z,72.37
2023-05-04T01:50:06.217Z,72.56
2023-05-04T01:53:03.901Z,72.61
2023-05-04T01:56:01.646Z,72.79
2023-05-04T01:58:59.092Z,72.77
2023-05-04T02:01:56.888Z,72.74
2023-05-04T02:04:54.372Z,72.75
2023-05-04T02:07:52.025Z,72.73
2023-05-04T02:10:49.440Z,72.73
2023-05-04T02:13:47.140Z,72.69
2023-05-04T02:16:44.589Z,72.70
2023-05-04T02:19:42.345Z,72.78
2023-05-04T02:22:39.958Z,72.85
2023-05-04T02:25:37.371Z,72.94
2023-05-04T02:28:35.041Z,73.06
2023-05-04T02:31:32.475Z,73.22
2023-05-04T02:34:30.135Z,73.35
2023-05-04T02:37:27.582Z,73.48
2023-05-04T02:40:25.160Z,73.60
2023-05-04T02:43:22.562Z,73.73
2023-05-04T02:46:20.921Z,73.75
2023-05-04T02:49:18.539Z,73.87
2023-05-04T02:52:16.125Z,73.92
2023-05-04T02:55:13.924Z,73.89
2023-05-04T02:58:11.494Z,74.08
2023-05-04T03:01:09.197Z,74.13
2023-05-04T03:04:07.035Z,73.98
2023-05-04T03:07:04.686Z,73.87
2023-05-04T03:10:02.361Z,73.67
2023-05-04T03:13:04.247Z,73.27
2023-05-04T03:16:01.914Z,72.97
2023-05-04T03:18:59.304Z,72.87
2023-05-04T03:21:56.983Z,72.77
2023-05-04T03:24:54.421Z,72.47
2023-05-04T03:27:52.109Z,72.33
2023-05-04T03:30:49.526Z,72.39
2023-05-04T03:33:47.206Z,72.40
2023-05-04T03:36:45.259Z,72.46
2023-05-04T03:39:42.864Z,72.41
2023-05-04T03:42:41.371Z,72.34
2023-05-04T03:45:38.799Z,72.29
2023-05-04T03:48:36.694Z,72.25
2023-05-04T03:51:34.105Z,72.20
2023-05-04T03:54:31.712Z,72.24
2023-05-04T03:57:29.082Z,72.15
2023-05-04T04:00:26.756Z,72.20
2023-05-04T04:03:24.344Z,72.26
2023-05-04T04:06:22.180Z,72.40
2023-05-04T04:09:19.818Z,72.40
2023-05-04T04:12:18.488Z,72.19
2023-05-04T04:15:16.189Z,72.18
2023-05-04T04:18:13.675Z,72.11
2023-05-04T04:21:11.253Z,71.93
2023-05-04T04:24:08.670Z,71.64
2023-05-04T04:27:06.538Z,71.42
2023-05-04T04:30:04.494Z,71.32
2023-05-04T04:33:02.518Z,71.21
2023-05-04T04:35:59.963Z,71.04
2023-05-04T04:38:57.588Z,70.90
2023-05-04T04:41:55.051Z,70.90
2023-05-04T04:44:52.673Z,70.81
2023-05-04T04:47:50.212Z,70.47
2023-05-04T04:50:49.708Z,70.17
2023-05-04T04:53:47.312Z,70.00
2023-05-04T04:56:46.375Z,69.80
2023-05-04T04:59:44.256Z,69.50
2023-05-04T05:02:42.138Z,69.15
2023-05-04T05:05:39.864Z,68.93
2023-05-04T05:08:37.364Z,68.78
2023-05-04T05:11:35.008Z,68.78
2023-05-04T05:14:32.776Z,68.59
2023-05-04T05:17:31.049Z,68.33
2023-05-04T05:20:28.446Z,68.10
2023-05-04T05:23:26.161Z,67.94
2023-05-04T05:26:25.019Z,67.61
2023-05-04T05:29:22.697Z,67.29
2023-05-04T05:32:20.367Z,67.04
2023-05-04T05:35:17.830Z,66.78
2023-05-04T05:38:16.547Z,66.54
2023-05-04T05:41:15.329Z,66.01
2023-05-04T05:44:13.505Z,66.14
2023-05-04T05:47:11.212Z,65.27
2023-05-04T05:50:08.786Z,65.09
2023-05-04T05:53:06.470Z,64.61
2023-05-04T05:56:03.908Z,64.61
2023-05-04T05:59:01.729Z,64.53
2023-05-04T06:01:59.122Z,64.00
2023-05-04T06:04:56.993Z,63.86
2023-05-04T06:07:54.605Z,63.90
2023-05-04T06:10:52.999Z,64.17
2023-05-04T06:13:50.664Z,63.94
2023-05-04T06:16:48.221Z,63.74
2023-05-04T06:19:48.071Z,63.74
2023-05-04T06:22:46.937Z,63.65
2023-05-04T06:25:44.725Z,63.18
2023-05-04T06:28:42.139Z,63.30
2023-05-04T06:31:39.991Z,63.01
2023-05-04T06:34:37.789Z,62.78
2023-05-04T06:37:35.193Z,62.33
2023-05-04T06:40:32.923Z,61.54
2023-05-04T06:43:30.570Z,61.18
2023-05-04T06:46:28.262Z,61.12
2023-05-04T06:49:25.699Z,60.72
2023-05-04T06:52:23.327Z,60.01
2023-05-04T06:55:21.045Z,59.70
2023-05-04T06:58:19.029Z,58.74
2023-05-04T07:01:18.278Z,58.32
2023-05-04T07:04:17.251Z,57.59
2023-05-04T07:07:14.848Z,56.94
2023-05-04T07:10:12.289Z,56.90
2023-05-04T07:13:10.251Z,56.23
2023-05-04T07:16:07.911Z,55.43
2023-05-04T07:19:05.833Z,55.34
2023-05-04T07:22:03.816Z,54.45
2023-05-04T07:25:01.270Z,53.33
2023-05-04T07:27:59.756Z,52.19
2023-05-04T07:30:57.197Z,50.94
2023-05-04T07:33:54.835Z,50.20
2023-05-04T07:36:52.239Z,50.41
2023-05-04T07:39:49.940Z,49.52
2023-05-04T07:42:47.660Z,48.29
2023-05-04T07:45:45.091Z,48.14
2023-05-04T07:48:43.034Z,47.12
2023-05-04T07:51:40.472Z,46.42
2023-05-04T07:54:38.307Z,45.65
2023-05-04T07:57:35.887Z,45.29
2023-05-04T08:00:33.530Z,45.49
2023-05-04T08:03:32.395Z,43.89
2023-05-04T08:06:29.899Z,44.69
2023-05-04T08:09:27.588Z,43.24
2023-05-04T08:12:27.103Z,42.31
2023-05-04T08:15:24.850Z,41.79
2023-05-04T08:18:22.457Z,41.57
2023-05-04T08:21:20.285Z,40.45
2023-05-04T08:24:18.057Z,38.81
2023-05-04T08:27:15.741Z,39.94
2023-05-04T08:30:13.687Z,40.16
2023-05-04T08:33:11.126Z,37.49
2023-05-04T08:36:08.792Z,37.24
2023-05-04T08:39:07.044Z,36.82
2023-05-04T08:42:04.562Z,36.99
2023-05-04T08:45:02.279Z,35.06
2023-05-04T08:47:59.911Z,35.43
2023-05-04T08:50:57.575Z,34.56
2023-05-04T08:53:55.032Z,34.39
2023-05-04T08:56:52.776Z,34.13
2023-05-04T08:59:50.279Z,34.67
2023-05-04T09:02:48.076Z,33.65
2023-05-04T09:05:46.504Z,34.46
2023-05-04T09:08:43.953Z,32.88
2023-05-04T09:11:41.652Z,32.52
2023-05-04T09:14:39.094Z,32.51
2023-05-04T09:17:44.588Z,31.85
2023-05-04T09:20:48.596Z,31.28
2023-05-04T09:23:46.351Z,31.53
2023-05-04T09:26:45.097Z,31.86
2023-05-04T09:29:42.601Z,31.28
2023-05-04T09:32:40.356Z,30.68
2023-05-04T09:35:38.605Z,30.43
2023-05-04T09:38:36.597Z,30.13
2023-05-04T09:41:35.991Z,29.78
2023-05-04T09:44:33.913Z,28.94
2023-05-04T09:47:31.391Z,28.96
2023-05-04T09:50:33.571Z,28.95
2023-05-04T09:53:31.249Z,28.09
2023-05-04T09:56:28.744Z,26.94
2023-05-04T09:59:26.634Z,26.63
2023-05-04T10:02:24.135Z,26.19
2023-05-04T10:05:22.810Z,26.51
2023-05-04T10:08:20.322Z,26.05
2023-05-04T10:11:19.491Z,26.18
2023-05-04T10:14:17.170Z,26.24
2023-05-04T10:17:14.633Z,26.61
2023-05-04T10:20:12.374Z,25.39
2023-05-04T10:23:09.806Z,25.12
2023-05-04T10:26:08.310Z,25.64
2023-05-04T10:29:06.456Z,25.13
2023-05-04T10:32:04.130Z,25.32
2023-05-04T10:35:02.039Z,24.97
2023-05-04T10:37:59.516Z,24.75
2023-05-04T10:40:57.626Z,24.68
2023-05-04T10:43:56.857Z,24.96
2023-05-04T10:46:54.561Z,25.20
2023-05-04T10:49:52.226Z,24.28
2023-05-04T10:52:49.688Z,23.95
2023-05-04T10:55:47.302Z,23.99
2023-05-04T10:58:44.715Z,24.51
2023-05-04T11:01:42.485Z,23.08
2023-05-04T11:04:39.905Z,23.37
2023-05-04T11:07:37.923Z,22.89
2023-05-04T11:10:35.956Z,22.15
2023-05-04T11:13:33.997Z,22.58
2023-05-04T11:16:31.722Z,22.85
2023-05-04T11:19:29.163Z,22.69
2023-05-04T11:22:26.953Z,22.24
2023-05-04T11:25:24.408Z,22.49
2023-05-04T11:28:22.543Z,22.69
2023-05-04T11:31:20.275Z,22.26
2023-05-04T11:34:17.696Z,22.30
2023-05-04T11:37:15.452Z,22.42
2023-05-04T11:40:13.113Z,22.13
2023-05-04T11:43:10.911Z,22.25
2023-05-04T11:46:08.420Z,22.47
2023-05-04T11:49:06.665Z,21.96
2023-05-04T11:52:04.110Z,22.20
2023-05-04T11:55:01.789Z,21.82
2023-05-04T11:57:59.629Z,21.47
2023-05-04T12:00:57.229Z,22.66
2023-05-04T12:03:55.009Z,22.22
2023-05-04T12:06:52.562Z,22.12
2023-05-04T12:09:50.287Z,22.34
2023-05-04T12:12:47.722Z,22.80
2023-05-04T12:15:45.402Z,22.41
2023-05-04T12:18:42.928Z,22.16
2023-05-04T12:21:41.260Z,22.04
2023-05-04T12:24:40.106Z,21.62
2023-05-04T12:27:37.543Z,21.87
2023-05-04T12:30:35.247Z,21.75
2023-05-04T12:33:32.973Z,21.88
2023-05-04T12:36:30.527Z,21.44
2023-05-04T12:39:29.874Z,21.34
2023-05-04T12:42:27.383Z,21.77
2023-05-04T12:45:25.121Z,21.15
2023-05-04T12:48:22.505Z,21.77
2023-05-04T12:51:20.245Z,21.20
2023-05-04T12:54:17.894Z,21.20
2023-05-04T12:57:15.299Z,21.22
2023-05-04T13:00:13.426Z,21.36
2023-05-04T13:03:12.828Z,21.68
2023-05-04T13:06:11.013Z,21.82
2023-05-04T13:09:08.820Z,22.12
2023-05-04T13:12:06.546Z,22.07
2023-05-04T13:15:04.474Z,21.91
2023-05-04T13:18:02.412Z,21.92
2023-05-04T13:21:00.876Z,22.40
2023-05-04T13:23:59.473Z,22.72
2023-05-04T13:26:57.435Z,22.75
2023-05-04T13:29:55.250Z,22.84
2023-05-04T13:32:53.475Z,22.67
2023-05-04T13:35:51.464Z,22.70
2023-05-04T13:38:49.463Z,22.36
2023-05-04T13:41:47.519Z,22.38
2023-05-04T13:44:46.117Z,22.45
2023-05-04T13:47:43.920Z,22.18
2023-05-04T13:50:41.339Z,22.15
2023-05-04T13:53:38.983Z,22.11
2023-05-04T13:56:36.634Z,22.24
2023-05-04T13:59:34.339Z,22.22
2023-05-04T14:02:32.156Z,22.33
2023-05-04T14:05:29.648Z,21.95
2023-05-04T14:08:27.434Z,22.16
2023-05-04T14:11:24.855Z,22.19
2023-05-04T14:14:23.126Z,22.30
2023-05-04T14:17:20.552Z,22.64
2023-05-04T14:20:19.095Z,22.02
2023-05-04T14:23:17.089Z,22.36
2023-05-04T14:26:14.562Z,22.44
2023-05-04T14:29:12.258Z,22.60
2023-05-04T14:32:09.777Z,22.76
2023-05-04T14:35:09.058Z,22.37
2023-05-04T14:38:06.712Z,22.80
2023-05-04T14:41:04.363Z,22.80
2023-05-04T14:44:01.859Z,22.64
2023-05-04T14:46:59.473Z,22.96
2023-05-04T14:49:57.537Z,22.61
2023-05-04T14:52:55.271Z,22.37
2023-05-04T14:55:53.405Z,22.04
2023-05-04T14:58:50.904Z,22.48
2023-05-04T15:01:48.690Z,22.50
2023-05-04T15:04:46.985Z,22.33
2023-05-04T15:07:44.788Z,22.12
2023-05-04T15:10:42.172Z,22.33
2023-05-04T15:13:39.925Z,22.37
2023-05-04T15:16:37.393Z,22.62
2023-05-04T15:19:35.194Z,22.90
2023-05-04T15:22:32.895Z,22.98
2023-05-04T15:25:30.265Z,23.22
2023-05-04T15:28:27.875Z,23.44
2023-05-04T15:31:25.428Z,23.04
2023-05-04T15:34:23.164Z,23.43
2023-05-04T15:37:20.598Z,23.64
2023-05-04T15:40:19.001Z,23.75
2023-05-04T15:43:16.629Z,23.83
2023-05-04T15:46:14.087Z,23.84
2023-05-04T15:49:11.738Z,24.14
2023-05-04T15:52:10.527Z,24.33
2023-05-04T15:55:23.285Z,24.45
2023-05-04T15:58:22.512Z,24.58
2023-05-04T16:01:20.470Z,24.71
2023-05-04T16:04:17.868Z,25.02
2023-05-04T16:07:15.803Z,25.34
2023-05-04T16:10:13.266Z,25.06
2023-05-04T16:13:12.178Z,25.18
2023-05-04T16:16:10.056Z,25.68
2023-05-04T16:19:08.954Z,25.72
2023-05-04T16:22:10.575Z,25.75
2023-05-04T16:25:09.537Z,26.04
2023-05-04T16:28:08.784Z,26.11
2023-05-04T16:31:06.279Z,26.11
2023-05-04T16:34:04.087Z,26.34
2023-05-04T16:37:01.535Z,26.18
2023-05-04T16:39:59.084Z,26.18
2023-05-04T16:42:56.508Z,26.36
2023-05-04T16:45:54.316Z,26.62
2023-05-04T16:48:51.711Z,27.00
2023-05-04T16:51:49.302Z,27.17
2023-05-04T16:54:46.731Z,27.33
2023-05-04T16:57:44.392Z,27.67
2023-05-04T17:00:42.370Z,27.76
2023-05-04T17:03:39.925Z,28.05
2023-05-04T17:06:38.951Z,28.21
2023-05-04T17:09:36.366Z,28.42
2023-05-04T17:12:34.177Z,28.78
2023-05-04T17:15:31.584Z,29.17
2023-05-04T17:18:29.481Z,29.43
2023-05-04T17:21:26.907Z,29.53
2023-05-04T17:24:24.585Z,30.02
2023-05-04T17:27:22.259Z,29.88
2023-05-04T17:30:19.633Z,30.23
2023-05-04T17:33:17.433Z,30.66
2023-05-04T17:36:14.835Z,31.03
2023-05-04T17:39:12.505Z,31.50
2023-05-04T17:42:10.841Z,32.04
2023-05-04T17:45:09.103Z,32.49
2023-05-04T17:48:07.133Z,33.02
2023-05-04T17:51:04.686Z,33.77
2023-05-04T17:54:02.380Z,34.39
2023-05-04T17:56:59.796Z,34.79
2023-05-04T17:59:57.806Z,35.15
2023-05-04T18:02:55.318Z,35.59
2023-05-04T18:05:53.022Z,35.91
2023-05-04T18:08:50.816Z,36.24
2023-05-04T18:11:48.313Z,36.68
2023-05-04T18:14:46.287Z,37.15
2023-05-04T18:17:44.081Z,37.57
2023-05-04T18:20:41.895Z,37.74
2023-05-04T18:23:39.308Z,38.21
2023-05-04T18:26:37.500Z,38.65
2023-05-04T18:29:35.316Z,38.88
2023-05-04T18:32:34.485Z,39.05
2023-05-04T18:35:32.024Z,39.47
2023-05-04T18:38:30.128Z,39.93
2023-05-04T18:41:28.395Z,40.24
2023-05-04T18:44:25.906Z,40.57
2023-05-04T18:47:23.708Z,40.94
2023-05-04T18:50:22.721Z,41.23
2023-05-04T18:53:21.110Z,41.59
2023-05-04T18:56:21.047Z,42.00
2023-05-04T18:59:19.352Z,42.28
2023-05-04T19:02:17.886Z,42.74
2023-05-04T19:05:16.411Z,43.00
2023-05-04T19:08:14.182Z,43.29
2023-05-04T19:11:12.254Z,43.56
2023-05-04T19:14:10.491Z,43.77
2023-05-04T19:17:08.263Z,43.97
2023-05-04T19:20:05.951Z,44.27
2023-05-04T19:23:03.918Z,44.41
2023-05-04T19:26:01.438Z,44.43
2023-05-04T19:28:59.279Z,44.76
2023-05-04T19:31:59.538Z,44.80
2023-05-04T19:34:59.299Z,44.92
2023-05-04T19:37:57.469Z,45.07
2023-05-04T19:40:54.840Z,45.15
2023-05-04T19:43:52.765Z,45.30
2023-05-04T19:46:51.689Z,45.45
2023-05-04T19:49:49.906Z,45.60
2023-05-04T19:52:47.347Z,45.73
2023-05-04T19:55:45.968Z,45.88
2023-05-04T19:58:44.213Z,46.18
2023-05-04T20:01:41.651Z,46.68
2023-05-04T20:04:39.339Z,47.09
2023-05-04T20:07:36.821Z,47.41
2023-05-04T20:10:34.834Z,47.59
2023-05-04T20:13:32.819Z,47.88
2023-05-04T20:16:30.217Z,47.96
2023-05-04T20:19:28.777Z,48.20
2023-05-04T20:22:26.289Z,48.54
2023-05-04T20:25:24.205Z,48.65
2023-05-04T20:28:22.976Z,48.85
2023-05-04T20:31:20.640Z,49.43
2023-05-04T20:34:19.050Z,49.98
2023-05-04T20:37:17.478Z,50.53
2023-05-04T20:40:16.902Z,50.83
2023-05-04T20:43:14.888Z,50.93
2023-05-04T20:46:12.681Z,50.97
2023-05-04T20:49:11.037Z,50.98
2023-05-04T20:52:08.883Z,51.08
2023-05-04T20:55:07.163Z,51.27
2023-05-04T20:58:04.906Z,51.53
2023-05-04T21:01:02.486Z,51.54
2023-05-04T21:04:00.469Z,51.75
2023-05-04T21:06:58.020Z,51.94
2023-05-04T21:09:55.828Z,52.05
2023-05-04T21:12:53.240Z,52.24
2023-05-04T21:15:50.943Z,52.33
2023-05-04T21:18:48.532Z,52.38
2023-05-04T21:21:46.253Z,52.71
2023-05-04T21:24:44.415Z,52.97
2023-05-04T21:27:44.220Z,53.33
2023-05-04T21:30:42.167Z,53.78
2023-05-04T21:33:39.571Z,54.05
2023-05-04T21:36:38.936Z,54.03
2023-05-04T21:39:36.439Z,54.13
2023-05-04T21:42:34.079Z,54.49
2023-05-04T21:45:31.571Z,54.69
2023-05-04T21:48:29.271Z,55.00
2023-05-04T21:51:27.032Z,55.13
2023-05-04T21:54:25.965Z,55.02
2023-05-04T21:57:25.602Z,55.08
2023-05-04T22:00:24.069Z,55.04
2023-05-04T22:03:21.693Z,55.05
2023-05-04T22:06:21.619Z,55.04
2023-05-04T22:09:19.264Z,55.19
2023-05-04T22:12:16.792Z,55.48
2023-05-04T22:15:14.498Z,55.66
2023-05-04T22:18:11.869Z,56.04
2023-05-04T22:21:09.467Z,56.52
2023-05-04T22:24:07.261Z,56.69
2023-05-04T22:27:04.664Z,56.88
2023-05-04T22:30:02.227Z,56.98
2023-05-04T22:32:59.710Z,57.11
2023-05-04T22:35:57.399Z,57.39
2023-05-04T22:38:54.852Z,57.62
2023-05-04T22:41:52.520Z,57.79
2023-05-04T22:44:50.101Z,57.97
2023-05-04T22:47:47.583Z,57.97
2023-05-04T22:50:45.300Z,58.04
2023-05-04T22:53:42.723Z,58.29
2023-05-04T22:56:40.539Z,58.48
2023-05-04T22:59:38.321Z,58.74
2023-05-04T23:02:35.877Z,58.81
2023-05-04T23:05:33.843Z,59.12
2023-05-04T23:08:31.268Z,59.24
2023-05-04T23:11:28.890Z,59.28
2023-05-04T23:14:26.285Z,59.43
2023-05-04T23:17:24.083Z,59.66
2023-05-04T23:20:21.627Z,59.86
2023-05-04T23:23:19.279Z,60.27
2023-05-04T23:26:16.983Z,60.42
2023-05-04T23:29:14.414Z,60.63
2023-05-04T23:32:12.068Z,60.84
2023-05-04T23:35:09.489Z,60.87
2023-05-04T23:38:07.172Z,61.17
2023-05-04T23:41:04.643Z,61.35
2023-05-04T23:44:02.255Z,61.52
2023-05-04T23:46:59.702Z,61.69
2023-05-04T23:49:57.390Z,61.86
2023-05-04T23:52:55.083Z,62.12
2023-05-04T23:55:52.613Z,62.36
2023-05-04T23:58:50.194Z,62.55
